Amity, Missouri
Current Conditions -  °F | °C
As of 9:53 PM on Wednesday 22 Oct 2014 (Local Time) from KSTJ Reporting Station
Clear Clear  
Wind Chill: 62°   Ceiling: Unl
Heat Index: 62°   Visibility: 10mi
Dew Point: 51°   Wind: 6mph
Humidity: 67%   Direction: 160°SSE
Pressure: 30.1"   Gusts: NA
Location:  39.87°N, 94.44°W
Report Text: KSTJ 230253Z AUTO 16005KT 10SM CLR 17/11 A3010 RMK AO2 SLP191 T01670106 53007
Loading
Personal Weather Stations






























Interactive Weather Map
Tropical Storm Tracking
New forecast layout! Learn more

10-Day Weather Forecast

Advertisements
Track Severe Weather on mobile